sensor_id;sensor_type;location;lat;lon;timestamp;pressure;altitude;pressure_sealevel;temperature;humidity
48517;BME280;34310;51.904;4.256;2023-02-28T00:01:19;103286.63;;;15.14;56.08
48517;BME280;34310;51.904;4.256;2023-02-28T00:03:46;103279.59;;;15.13;55.99
48517;BME280;34310;51.904;4.256;2023-02-28T00:06:14;103282.06;;;15.11;56.00
48517;BME280;34310;51.904;4.256;2023-02-28T00:08:41;103271.38;;;15.08;55.98
48517;BME280;34310;51.904;4.256;2023-02-28T00:11:11;103271.38;;;15.08;55.97
48517;BME280;34310;51.904;4.256;2023-02-28T00:13:42;103269.56;;;15.07;56.05
48517;BME280;34310;51.904;4.256;2023-02-28T00:16:16;103268.66;;;15.07;55.99
48517;BME280;34310;51.904;4.256;2023-02-28T00:18:44;103266.81;;;15.06;55.92
48517;BME280;34310;51.904;4.256;2023-02-28T00:21:12;103264.09;;;15.04;55.90
48517;BME280;34310;51.904;4.256;2023-02-28T00:23:39;103272.63;;;15.03;55.90
48517;BME280;34310;51.904;4.256;2023-02-28T00:26:06;103281.22;;;15.02;55.99
48517;BME280;34310;51.904;4.256;2023-02-28T00:28:34;103272.50;;;15.02;55.95
48517;BME280;34310;51.904;4.256;2023-02-28T00:31:01;103273.41;;;15.02;56.01
48517;BME280;34310;51.904;4.256;2023-02-28T00:33:29;103278.59;;;15.02;56.15
48517;BME280;34310;51.904;4.256;2023-02-28T00:36:10;103281.22;;;15.02;56.22
48517;BME280;34310;51.904;4.256;2023-02-28T00:38:39;103293.44;;;15.03;56.15
48517;BME280;34310;51.904;4.256;2023-02-28T00:41:07;103284.13;;;15.05;56.33
48517;BME280;34310;51.904;4.256;2023-02-28T00:43:37;103297.41;;;15.08;56.42
48517;BME280;34310;51.904;4.256;2023-02-28T00:46:05;103300.28;;;15.11;56.48
48517;BME280;34310;51.904;4.256;2023-02-28T00:48:33;103296.13;;;15.13;56.69
48517;BME280;34310;51.904;4.256;2023-02-28T00:51:01;103284.19;;;15.15;56.68
48517;BME280;34310;51.904;4.256;2023-02-28T00:53:29;103286.00;;;15.16;56.70
48517;BME280;34310;51.904;4.256;2023-02-28T00:55:56;103285.38;;;15.19;56.82
48517;BME280;34310;51.904;4.256;2023-02-28T00:58:23;103274.97;;;15.19;56.88
48517;BME280;34310;51.904;4.256;2023-02-28T01:00:52;103274.31;;;15.22;56.74
48517;BME280;34310;51.904;4.256;2023-02-28T01:03:20;103270.16;;;15.24;56.68
48517;BME280;34310;51.904;4.256;2023-02-28T01:05:48;103272.00;;;15.25;56.66
48517;BME280;34310;51.904;4.256;2023-02-28T01:08:15;103266.91;;;15.26;56.61
48517;BME280;34310;51.904;4.256;2023-02-28T01:10:42;103279.28;;;15.29;56.69
48517;BME280;34310;51.904;4.256;2023-02-28T01:13:10;103282.81;;;15.29;56.56
48517;BME280;34310;51.904;4.256;2023-02-28T01:15:49;103276.81;;;15.30;56.50
48517;BME280;34310;51.904;4.256;2023-02-28T01:18:19;103281.25;;;15.31;56.48
48517;BME280;34310;51.904;4.256;2023-02-28T01:20:47;103277.75;;;15.31;56.60
48517;BME280;34310;51.904;4.256;2023-02-28T01:23:15;103283.09;;;15.32;56.38
48517;BME280;34310;51.904;4.256;2023-02-28T01:25:42;103286.47;;;15.31;56.59
48517;BME280;34310;51.904;4.256;2023-02-28T01:28:10;103286.63;;;15.33;56.56
48517;BME280;34310;51.904;4.256;2023-02-28T01:30:37;103284.63;;;15.30;56.59
48517;BME280;34310;51.904;4.256;2023-02-28T01:33:04;103280.97;;;15.28;56.59
48517;BME280;34310;51.904;4.256;2023-02-28T01:35:35;103287.88;;;15.28;56.60
48517;BME280;34310;51.904;4.256;2023-02-28T01:38:03;103282.81;;;15.29;56.57
48517;BME280;34310;51.904;4.256;2023-02-28T01:40:47;103276.56;;;15.27;56.58
48517;BME280;34310;51.904;4.256;2023-02-28T01:43:30;103285.41;;;15.29;56.64
48517;BME280;34310;51.904;4.256;2023-02-28T01:45:58;103281.91;;;15.29;56.52
48517;BME280;34310;51.904;4.256;2023-02-28T01:48:32;103275.00;;;15.29;56.59
48517;BME280;34310;51.904;4.256;2023-02-28T01:51:05;103273.31;;;15.30;56.50
48517;BME280;34310;51.904;4.256;2023-02-28T01:53:48;103276.81;;;15.30;56.43
48517;BME280;34310;51.904;4.256;2023-02-28T01:56:20;103268.25;;;15.31;56.55
48517;BME280;34310;51.904;4.256;2023-02-28T01:58:52;103269.94;;;15.31;56.35
48517;BME280;34310;51.904;4.256;2023-02-28T02:01:21;103260.28;;;15.30;56.49
48517;BME280;34310;51.904;4.256;2023-02-28T02:04:01;103264.72;;;15.31;56.48
48517;BME280;34310;51.904;4.256;2023-02-28T02:06:42;103258.75;;;15.32;56.34
48517;BME280;34310;51.904;4.256;2023-02-28T02:09:11;103261.34;;;15.32;56.40
48517;BME280;34310;51.904;4.256;2023-02-28T02:11:40;103253.41;;;15.30;56.23
48517;BME280;34310;51.904;4.256;2023-02-28T02:17:26;103237.78;;;15.30;56.23
48517;BME280;34310;51.904;4.256;2023-02-28T02:46:49;103235.28;;;15.22;56.09
48517;BME280;34310;51.904;4.256;2023-02-28T02:49:23;103237.88;;;15.22;56.10
48517;BME280;34310;51.904;4.256;2023-02-28T02:51:52;103241.13;;;15.19;55.95
48517;BME280;34310;51.904;4.256;2023-02-28T02:54:25;103231.63;;;15.19;55.90
48517;BME280;34310;51.904;4.256;2023-02-28T02:56:58;103242.03;;;15.19;55.91
48517;BME280;34310;51.904;4.256;2023-02-28T02:59:27;103237.59;;;15.18;55.94
48517;BME280;34310;51.904;4.256;2023-02-28T03:02:00;103240.06;;;15.17;55.94
48517;BME280;34310;51.904;4.256;2023-02-28T03:04:32;103239.94;;;15.15;55.84
48517;BME280;34310;51.904;4.256;2023-02-28T03:07:01;103238.13;;;15.14;55.80
48517;BME280;34310;51.904;4.256;2023-02-28T03:09:29;103242.41;;;15.14;55.83
48517;BME280;34310;51.904;4.256;2023-02-28T03:11:59;103238.75;;;15.12;55.86
48517;BME280;34310;51.904;4.256;2023-02-28T03:17:33;103236.78;;;15.09;56.06
48517;BME280;34310;51.904;4.256;2023-02-28T03:20:18;103242.28;;;15.12;56.07
48517;BME280;34310;51.904;4.256;2023-02-28T03:26:10;103242.69;;;15.17;56.29
48517;BME280;34310;51.904;4.256;2023-02-28T03:28:51;103248.94;;;15.19;56.50
48517;BME280;34310;51.904;4.256;2023-02-28T03:35:18;103239.72;;;15.23;56.50
48517;BME280;34310;51.904;4.256;2023-02-28T03:37:58;103249.34;;;15.24;56.65
48517;BME280;34310;51.904;4.256;2023-02-28T03:40:30;103249.47;;;15.25;56.60
48517;BME280;34310;51.904;4.256;2023-02-28T03:43:07;103254.81;;;15.27;56.59
48517;BME280;34310;51.904;4.256;2023-02-28T03:45:38;103240.13;;;15.27;56.54
48517;BME280;34310;51.904;4.256;2023-02-28T03:48:22;103242.09;;;15.30;56.48
48517;BME280;34310;51.904;4.256;2023-02-28T03:50:54;103243.00;;;15.30;56.49
48517;BME280;34310;51.904;4.256;2023-02-28T03:53:36;103243.13;;;15.32;56.63
48517;BME280;34310;51.904;4.256;2023-02-28T03:56:27;103251.84;;;15.32;56.54
48517;BME280;34310;51.904;4.256;2023-02-28T03:59:15;103248.50;;;15.33;56.44
48517;BME280;34310;51.904;4.256;2023-02-28T04:01:45;103246.03;;;15.35;56.42
48517;BME280;34310;51.904;4.256;2023-02-28T04:04:13;103241.75;;;15.35;56.37
48517;BME280;34310;51.904;4.256;2023-02-28T04:06:41;103246.03;;;15.35;56.53
48517;BME280;34310;51.904;4.256;2023-02-28T04:09:11;103239.91;;;15.34;56.50
48517;BME280;34310;51.904;4.256;2023-02-28T04:11:42;103238.22;;;15.35;56.29
48517;BME280;34310;51.904;4.256;2023-02-28T04:14:12;103238.09;;;15.33;56.47
48517;BME280;34310;51.904;4.256;2023-02-28T04:16:41;103231.97;;;15.33;56.43
48517;BME280;34310;51.904;4.256;2023-02-28T04:19:10;103235.50;;;15.33;56.45
48517;BME280;34310;51.904;4.256;2023-02-28T04:21:49;103241.44;;;15.32;56.56
48517;BME280;34310;51.904;4.256;2023-02-28T04:24:19;103244.03;;;15.32;56.57
48517;BME280;34310;51.904;4.256;2023-02-28T04:26:49;103239.63;;;15.31;56.58
48517;BME280;34310;51.904;4.256;2023-02-28T04:29:35;103241.44;;;15.32;56.52
48517;BME280;34310;51.904;4.256;2023-02-28T04:32:03;103241.31;;;15.31;56.37
48517;BME280;34310;51.904;4.256;2023-02-28T04:34:32;103238.69;;;15.31;56.39
48517;BME280;34310;51.904;4.256;2023-02-28T04:37:00;103244.81;;;15.31;56.55
48517;BME280;34310;51.904;4.256;2023-02-28T04:39:43;103242.22;;;15.31;56.27
48517;BME280;34310;51.904;4.256;2023-02-28T04:42:11;103248.34;;;15.32;56.40
48517;BME280;34310;51.904;4.256;2023-02-28T04:44:38;103245.72;;;15.32;56.33
48517;BME280;34310;51.904;4.256;2023-02-28T04:47:06;103245.72;;;15.32;56.24
48517;BME280;34310;51.904;4.256;2023-02-28T04:49:33;103252.63;;;15.31;56.34
48517;BME280;34310;51.904;4.256;2023-02-28T04:52:01;103247.59;;;15.33;56.29
48517;BME280;34310;51.904;4.256;2023-02-28T04:54:28;103250.94;;;15.32;56.25
48517;BME280;34310;51.904;4.256;2023-02-28T04:56:56;103255.22;;;15.31;56.13
48517;BME280;34310;51.904;4.256;2023-02-28T04:59:24;103256.00;;;15.30;56.15
48517;BME280;34310;51.904;4.256;2023-02-28T05:01:51;103260.44;;;15.31;56.16
48517;BME280;34310;51.904;4.256;2023-02-28T05:04:19;103268.25;;;15.31;56.14
48517;BME280;34310;51.904;4.256;2023-02-28T05:06:46;103261.22;;;15.30;56.13
48517;BME280;34310;51.904;4.256;2023-02-28T05:09:13;103265.50;;;15.30;55.84
48517;BME280;34310;51.904;4.256;2023-02-28T05:11:41;103258.47;;;15.29;56.07
48517;BME280;34310;51.904;4.256;2023-02-28T05:14:13;103258.47;;;15.29;56.03
48517;BME280;34310;51.904;4.256;2023-02-28T05:16:41;103267.06;;;15.28;56.04
48517;BME280;34310;51.904;4.256;2023-02-28T05:19:08;103265.22;;;15.27;56.03
48517;BME280;34310;51.904;4.256;2023-02-28T05:21:38;103275.63;;;15.27;56.03
48517;BME280;34310;51.904;4.256;2023-02-28T05:24:11;103270.31;;;15.25;55.94
48517;BME280;34310;51.904;4.256;2023-02-28T05:26:41;103277.34;;;15.26;55.87
48517;BME280;34310;51.904;4.256;2023-02-28T05:29:09;103267.56;;;15.24;55.93
48517;BME280;34310;51.904;4.256;2023-02-28T05:31:37;103261.44;;;15.23;55.84
48517;BME280;34310;51.904;4.256;2023-02-28T05:34:05;103271.72;;;15.22;55.85
48517;BME280;34310;51.904;4.256;2023-02-28T05:36:32;103267.28;;;15.21;55.83
48517;BME280;34310;51.904;4.256;2023-02-28T05:39:00;103264.53;;;15.19;55.92
48517;BME280;34310;51.904;4.256;2023-02-28T05:41:27;103259.34;;;15.19;55.80
48517;BME280;34310;51.904;4.256;2023-02-28T05:43:57;103260.91;;;15.17;55.86
48517;BME280;34310;51.904;4.256;2023-02-28T05:46:24;103260.91;;;15.17;55.80
48517;BME280;34310;51.904;4.256;2023-02-28T05:48:51;103253.88;;;15.16;55.89
48517;BME280;34310;51.904;4.256;2023-02-28T05:51:19;103250.22;;;15.14;55.95
48517;BME280;34310;51.904;4.256;2023-02-28T05:53:46;103253.44;;;15.11;55.94
48517;BME280;34310;51.904;4.256;2023-02-28T05:56:15;103259.44;;;15.10;55.93
48517;BME280;34310;51.904;4.256;2023-02-28T05:58:42;103258.78;;;15.13;55.97
48517;BME280;34310;51.904;4.256;2023-02-28T06:01:24;103264.13;;;15.14;56.08
48517;BME280;34310;51.904;4.256;2023-02-28T06:03:54;103264.53;;;15.19;56.36
48517;BME280;34310;51.904;4.256;2023-02-28T06:06:21;103249.97;;;15.21;56.39
48517;BME280;34310;51.904;4.256;2023-02-28T06:08:48;103252.72;;;15.23;56.56
48517;BME280;34310;51.904;4.256;2023-02-28T06:11:15;103245.06;;;15.24;56.46
48517;BME280;34310;51.904;4.256;2023-02-28T06:13:43;103259.13;;;15.26;56.52
48517;BME280;34310;51.904;4.256;2023-02-28T06:16:11;103248.69;;;15.26;56.52
48517;BME280;34310;51.904;4.256;2023-02-28T06:18:39;103250.53;;;15.27;56.66
48517;BME280;34310;51.904;4.256;2023-02-28T06:21:06;103247.16;;;15.28;56.66
48517;BME280;34310;51.904;4.256;2023-02-28T06:23:33;103258.59;;;15.30;56.43
48517;BME280;34310;51.904;4.256;2023-02-28T06:26:01;103252.81;;;15.33;56.37
48517;BME280;34310;51.904;4.256;2023-02-28T06:28:28;103248.50;;;15.33;56.38
48517;BME280;34310;51.904;4.256;2023-02-28T06:30:56;103244.22;;;15.34;56.44
48517;BME280;34310;51.904;4.256;2023-02-28T06:33:23;103252.16;;;15.35;56.55
48517;BME280;34310;51.904;4.256;2023-02-28T06:35:51;103241.75;;;15.35;56.53
48517;BME280;34310;51.904;4.256;2023-02-28T06:38:19;103251.50;;;15.38;56.49
48517;BME280;34310;51.904;4.256;2023-02-28T06:40:54;103251.50;;;15.38;56.41
48517;BME280;34310;51.904;4.256;2023-02-28T06:43:22;103254.13;;;15.38;56.32
48517;BME280;34310;51.904;4.256;2023-02-28T06:45:49;103256.84;;;15.39;56.25
48517;BME280;34310;51.904;4.256;2023-02-28T06:48:17;103256.84;;;15.39;56.22
48517;BME280;34310;51.904;4.256;2023-02-28T06:50:44;103259.47;;;15.39;56.40
48517;BME280;34310;51.904;4.256;2023-02-28T06:53:12;103260.25;;;15.38;56.35
48517;BME280;34310;51.904;4.256;2023-02-28T06:55:40;103255.81;;;15.37;56.35
48517;BME280;34310;51.904;4.256;2023-02-28T06:58:07;103256.59;;;15.36;56.36
48517;BME280;34310;51.904;4.256;2023-02-28T07:00:45;103258.28;;;15.36;56.37
48517;BME280;34310;51.904;4.256;2023-02-28T07:03:13;103272.97;;;15.35;56.39
48517;BME280;34310;51.904;4.256;2023-02-28T07:05:42;103276.34;;;15.34;56.43
48517;BME280;34310;51.904;4.256;2023-02-28T07:08:10;103268.56;;;15.34;56.38
48517;BME280;34310;51.904;4.256;2023-02-28T07:10:40;103271.94;;;15.33;56.38
48517;BME280;34310;51.904;4.256;2023-02-28T07:13:09;103280.66;;;15.34;56.35
48517;BME280;34310;51.904;4.256;2023-02-28T07:15:37;103279.75;;;15.33;56.23
48517;BME280;34310;51.904;4.256;2023-02-28T07:18:09;103282.34;;;15.33;56.41
48517;BME280;34310;51.904;4.256;2023-02-28T07:20:36;103284.03;;;15.33;56.31
48517;BME280;34310;51.904;4.256;2023-02-28T07:23:03;103284.03;;;15.33;56.22
48517;BME280;34310;51.904;4.256;2023-02-28T07:25:30;103288.47;;;15.34;56.28
48517;BME280;34310;51.904;4.256;2023-02-28T07:27:58;103289.25;;;15.33;56.16
48517;BME280;34310;51.904;4.256;2023-02-28T07:30:26;103295.19;;;15.32;56.15
48517;BME280;34310;51.904;4.256;2023-02-28T07:32:53;103290.75;;;15.31;56.06
48517;BME280;34310;51.904;4.256;2023-02-28T07:35:23;103299.47;;;15.31;56.12
48517;BME280;34310;51.904;4.256;2023-02-28T07:37:50;103290.63;;;15.29;56.06
48517;BME280;34310;51.904;4.256;2023-02-28T07:40:18;103293.22;;;15.29;55.90
48517;BME280;34310;51.904;4.256;2023-02-28T07:42:46;103303.63;;;15.29;55.91
48517;BME280;34310;51.904;4.256;2023-02-28T07:45:13;103303.50;;;15.28;55.96
48517;BME280;34310;51.904;4.256;2023-02-28T07:47:42;103302.59;;;15.27;55.97
48517;BME280;34310;51.904;4.256;2023-02-28T07:50:12;103294.63;;;15.26;55.77
48517;BME280;34310;51.904;4.256;2023-02-28T07:52:40;103301.53;;;15.25;55.99
48517;BME280;34310;51.904;4.256;2023-02-28T07:55:09;103307.50;;;15.24;55.89
48517;BME280;34310;51.904;4.256;2023-02-28T07:57:37;103315.31;;;15.24;55.94
48517;BME280;34310;51.904;4.256;2023-02-28T08:00:06;103309.97;;;15.23;55.76
48517;BME280;34310;51.904;4.256;2023-02-28T08:02:36;103311.66;;;15.22;55.82
48517;BME280;34310;51.904;4.256;2023-02-28T08:05:04;103308.94;;;15.21;55.80
48517;BME280;34310;51.904;4.256;2023-02-28T08:07:31;103313.22;;;15.20;55.72
48517;BME280;34310;51.904;4.256;2023-02-28T08:10:00;103308.78;;;15.19;55.83
48517;BME280;34310;51.904;4.256;2023-02-28T08:12:28;103317.38;;;15.18;55.70
48517;BME280;34310;51.904;4.256;2023-02-28T08:14:55;103310.34;;;15.17;55.74
48517;BME280;34310;51.904;4.256;2023-02-28T08:17:22;103315.53;;;15.17;55.78
48517;BME280;34310;51.904;4.256;2023-02-28T08:19:49;103316.31;;;15.16;55.75
48517;BME280;34310;51.904;4.256;2023-02-28T08:22:17;103316.03;;;15.13;55.88
48517;BME280;34310;51.904;4.256;2023-02-28T08:24:44;103319.28;;;15.10;55.85
48517;BME280;34310;51.904;4.256;2023-02-28T08:27:12;103317.72;;;15.12;55.92
48517;BME280;34310;51.904;4.256;2023-02-28T08:29:40;103326.59;;;15.14;55.88
48517;BME280;34310;51.904;4.256;2023-02-28T08:32:07;103319.69;;;15.15;55.87
48517;BME280;34310;51.904;4.256;2023-02-28T08:34:46;103321.53;;;15.16;55.99
48517;BME280;34310;51.904;4.256;2023-02-28T08:37:14;103320.75;;;15.17;56.10
48517;BME280;34310;51.904;4.256;2023-02-28T08:39:41;103327.78;;;15.18;55.98
48517;BME280;34310;51.904;4.256;2023-02-28T08:42:08;103319.97;;;15.18;56.18
48517;BME280;34310;51.904;4.256;2023-02-28T08:44:36;103318.28;;;15.18;56.11
48517;BME280;34310;51.904;4.256;2023-02-28T08:47:04;103314.91;;;15.19;56.18
48517;BME280;34310;51.904;4.256;2023-02-28T08:49:32;103314.13;;;15.21;56.26
48517;BME280;34310;51.904;4.256;2023-02-28T08:51:59;103315.97;;;15.22;56.16
48517;BME280;34310;51.904;4.256;2023-02-28T08:54:26;103308.28;;;15.23;56.22
48517;BME280;34310;51.904;4.256;2023-02-28T08:56:57;103310.75;;;15.22;56.33
48517;BME280;34310;51.904;4.256;2023-02-28T08:59:24;103311.81;;;15.24;56.17
48517;BME280;34310;51.904;4.256;2023-02-28T09:01:52;103302.31;;;15.24;56.32
48517;BME280;34310;51.904;4.256;2023-02-28T09:04:19;103304.00;;;15.24;56.23
48517;BME280;34310;51.904;4.256;2023-02-28T09:06:47;103306.75;;;15.25;56.31
48517;BME280;34310;51.904;4.256;2023-02-28T09:09:16;103310.25;;;15.26;56.36
48517;BME280;34310;51.904;4.256;2023-02-28T09:11:43;103296.31;;;15.25;56.40
48517;BME280;34310;51.904;4.256;2023-02-28T09:14:10;103301.53;;;15.25;56.30
48517;BME280;34310;51.904;4.256;2023-02-28T09:16:38;103298.94;;;15.25;56.32
48517;BME280;34310;51.904;4.256;2023-02-28T09:19:05;103308.44;;;15.25;56.36
48517;BME280;34310;51.904;4.256;2023-02-28T09:21:32;103310.13;;;15.24;56.42
48517;BME280;34310;51.904;4.256;2023-02-28T09:24:00;103298.94;;;15.25;56.23
48517;BME280;34310;51.904;4.256;2023-02-28T09:26:28;103302.31;;;15.24;56.40
48517;BME280;34310;51.904;4.256;2023-02-28T09:29:09;103287.59;;;15.25;56.33
48517;BME280;34310;51.904;4.256;2023-02-28T09:31:36;103293.72;;;15.25;56.29
48517;BME280;34310;51.904;4.256;2023-02-28T09:34:04;103299.69;;;15.24;56.44
48517;BME280;34310;51.904;4.256;2023-02-28T09:36:31;103304.91;;;15.24;56.29
48517;BME280;34310;51.904;4.256;2023-02-28T09:39:11;103292.81;;;15.25;56.43
48517;BME280;34310;51.904;4.256;2023-02-28T09:41:44;103299.69;;;15.24;56.35
48517;BME280;34310;51.904;4.256;2023-02-28T09:47:13;103302.31;;;15.24;56.40
48517;BME280;34310;51.904;4.256;2023-02-28T09:49:45;103291.91;;;15.24;56.45
48517;BME280;34310;51.904;4.256;2023-02-28T09:52:24;103290.22;;;15.25;56.40
48517;BME280;34310;51.904;4.256;2023-02-28T09:54:54;103300.63;;;15.25;56.54
48517;BME280;34310;51.904;4.256;2023-02-28T09:57:36;103294.50;;;15.24;56.48
48517;BME280;34310;51.904;4.256;2023-02-28T10:05:36;103299.69;;;15.24;56.33
48517;BME280;34310;51.904;4.256;2023-02-28T10:08:36;103304.91;;;15.24;56.40
48517;BME280;34310;51.904;4.256;2023-02-28T10:11:11;103305.81;;;15.25;56.26
48517;BME280;34310;51.904;4.256;2023-02-28T10:16:41;103304.00;;;15.24;56.15
48517;BME280;34310;51.904;4.256;2023-02-28T10:19:39;103302.31;;;15.24;56.29
48517;BME280;34310;51.904;4.256;2023-02-28T10:22:16;103307.50;;;15.24;56.21
48517;BME280;34310;51.904;4.256;2023-02-28T10:24:50;103301.25;;;15.22;56.15
48517;BME280;34310;51.904;4.256;2023-02-28T10:27:25;103297.75;;;15.22;56.14
48517;BME280;34310;51.904;4.256;2023-02-28T10:30:00;103300.34;;;15.22;56.18
48517;BME280;34310;51.904;4.256;2023-02-28T10:32:34;103306.47;;;15.22;56.23
48517;BME280;34310;51.904;4.256;2023-02-28T10:37:44;103298.50;;;15.21;56.07
48517;BME280;34310;51.904;4.256;2023-02-28T10:40:33;103291.63;;;15.21;56.08
48517;BME280;34310;51.904;4.256;2023-02-28T10:43:17;103294.09;;;15.19;56.17
48517;BME280;34310;51.904;4.256;2023-02-28T10:48:57;103290.72;;;15.21;55.95
48517;BME280;34310;51.904;4.256;2023-02-28T10:51:38;103286.28;;;15.19;56.06
48517;BME280;34310;51.904;4.256;2023-02-28T10:54:14;103288.09;;;15.21;56.09
48517;BME280;34310;51.904;4.256;2023-02-28T10:56:42;103281.06;;;15.19;56.08
48517;BME280;34310;51.904;4.256;2023-02-28T11:01:49;103284.44;;;15.18;56.02
48517;BME280;34310;51.904;4.256;2023-02-28T11:07:00;103281.06;;;15.19;55.99
48517;BME280;34310;51.904;4.256;2023-02-28T11:11:58;103286.28;;;15.19;55.99
48517;BME280;34310;51.904;4.256;2023-02-28T11:14:28;103282.00;;;15.20;56.08
48517;BME280;34310;51.904;4.256;2023-02-28T11:17:02;103282.91;;;15.21;55.93
48517;BME280;34310;51.904;4.256;2023-02-28T11:19:44;103275.88;;;15.19;55.99
48517;BME280;34310;51.904;4.256;2023-02-28T11:22:18;103280.16;;;15.19;55.91
48517;BME280;34310;51.904;4.256;2023-02-28T11:24:50;103280.16;;;15.19;55.92
48517;BME280;34310;51.904;4.256;2023-02-28T11:29:59;103271.44;;;15.18;56.08
48517;BME280;34310;51.904;4.256;2023-02-28T11:32:29;103264.53;;;15.19;56.05
48517;BME280;34310;51.904;4.256;2023-02-28T11:35:25;103265.47;;;15.19;56.17
48517;BME280;34310;51.904;4.256;2023-02-28T11:37:54;103270.66;;;15.19;56.06
48517;BME280;34310;51.904;4.256;2023-02-28T11:40:36;103272.34;;;15.19;56.12
48517;BME280;34310;51.904;4.256;2023-02-28T11:46:12;103266.38;;;15.20;56.15
48517;BME280;34310;51.904;4.256;2023-02-28T11:49:17;103263.00;;;15.21;56.18
48517;BME280;34310;51.904;4.256;2023-02-28T11:52:52;103261.31;;;15.22;56.13
48517;BME280;34310;51.904;4.256;2023-02-28T11:55:04;103260.38;;;15.21;56.15
48517;BME280;34310;51.904;4.256;2023-02-28T12:00:52;103253.50;;;15.22;56.27
48517;BME280;34310;51.904;4.256;2023-02-28T12:03:48;103247.38;;;15.21;56.15
48517;BME280;34310;51.904;4.256;2023-02-28T12:06:52;103246.59;;;15.22;56.18
48517;BME280;34310;51.904;4.256;2023-02-28T12:09:46;103241.41;;;15.22;56.35
48517;BME280;34310;51.904;4.256;2023-02-28T12:12:29;103242.31;;;15.23;56.23
48517;BME280;34310;51.904;4.256;2023-02-28T12:28:28;103229.56;;;15.26;56.31
48517;BME280;34310;51.904;4.256;2023-02-28T12:31:38;103219.16;;;15.26;56.30
48517;BME280;34310;51.904;4.256;2023-02-28T12:34:12;103222.81;;;15.28;56.30
48517;BME280;34310;51.904;4.256;2023-02-28T12:36:42;103224.50;;;15.27;56.45
48517;BME280;34310;51.904;4.256;2023-02-28T12:39:23;103223.88;;;15.30;56.43
48517;BME280;34310;51.904;4.256;2023-02-28T12:44:35;103215.13;;;15.29;56.35
48517;BME280;34310;51.904;4.256;2023-02-28T12:47:13;103216.19;;;15.31;56.47
48517;BME280;34310;51.904;4.256;2023-02-28T12:49:58;103211.91;;;15.32;56.50
48517;BME280;34310;51.904;4.256;2023-02-28T13:10:02;103197.91;;;15.40;56.43
48517;BME280;34310;51.904;4.256;2023-02-28T13:12:31;103192.69;;;15.40;56.51
48517;BME280;34310;51.904;4.256;2023-02-28T13:15:06;103190.22;;;15.41;56.47
48517;BME280;34310;51.904;4.256;2023-02-28T13:17:40;103178.13;;;15.42;56.57
48517;BME280;34310;51.904;4.256;2023-02-28T13:20:21;103182.69;;;15.44;56.63
48517;BME280;34310;51.904;4.256;2023-02-28T13:22:51;103173.19;;;15.45;56.38
48517;BME280;34310;51.904;4.256;2023-02-28T13:27:51;103167.31;;;15.47;56.61
48517;BME280;34310;51.904;4.256;2023-02-28T13:33:24;103161.47;;;15.50;56.52
48517;BME280;34310;51.904;4.256;2023-02-28T13:38:59;103159.13;;;15.53;56.52
48517;BME280;34310;51.904;4.256;2023-02-28T13:44:11;103159.41;;;15.56;56.51
48517;BME280;34310;51.904;4.256;2023-02-28T13:49:25;103152.66;;;15.58;56.53
48517;BME280;34310;51.904;4.256;2023-02-28T13:57:48;103154.78;;;15.62;56.45
48517;BME280;34310;51.904;4.256;2023-02-28T14:06:27;103155.31;;;15.68;56.41
48517;BME280;34310;51.904;4.256;2023-02-28T14:09:00;103151.81;;;15.68;56.52
48517;BME280;34310;51.904;4.256;2023-02-28T14:11:38;103156.34;;;15.70;56.50
48517;BME280;34310;51.904;4.256;2023-02-28T14:14:08;103153.75;;;15.70;56.54
48517;BME280;34310;51.904;4.256;2023-02-28T14:16:47;103146.84;;;15.71;56.53
48517;BME280;34310;51.904;4.256;2023-02-28T14:19:23;103143.47;;;15.72;56.46
48517;BME280;34310;51.904;4.256;2023-02-28T14:25:22;103148.16;;;15.76;56.54
48517;BME280;34310;51.904;4.256;2023-02-28T14:31:01;103147.38;;;15.77;56.42
48517;BME280;34310;51.904;4.256;2023-02-28T14:36:37;103139.81;;;15.80;56.38
48517;BME280;34310;51.904;4.256;2023-02-28T14:39:23;103141.66;;;15.81;56.46
48517;BME280;34310;51.904;4.256;2023-02-28T14:41:52;103143.47;;;15.82;56.33
48517;BME280;34310;51.904;4.256;2023-02-28T14:44:24;103132.28;;;15.83;56.39
48517;BME280;34310;51.904;4.256;2023-02-28T14:47:00;103136.69;;;15.84;56.50
48517;BME280;34310;51.904;4.256;2023-02-28T14:49:42;103135.91;;;15.85;56.42
48517;BME280;34310;51.904;4.256;2023-02-28T14:52:23;103134.22;;;15.86;56.44
48517;BME280;34310;51.904;4.256;2023-02-28T14:55:00;103136.97;;;15.87;56.35
48517;BME280;34310;51.904;4.256;2023-02-28T14:57:32;103129.28;;;15.89;56.25
48517;BME280;34310;51.904;4.256;2023-02-28T15:02:51;103125.88;;;15.90;56.38
48517;BME280;34310;51.904;4.256;2023-02-28T15:05:27;103123.44;;;15.91;56.27
48517;BME280;34310;51.904;4.256;2023-02-28T15:08:14;103122.66;;;15.92;56.17
48517;BME280;34310;51.904;4.256;2023-02-28T15:10:53;103126.03;;;15.91;56.32
48517;BME280;34310;51.904;4.256;2023-02-28T15:13:23;103127.22;;;15.95;56.20
48517;BME280;34310;51.904;4.256;2023-02-28T15:16:02;103127.22;;;15.95;56.18
48517;BME280;34310;51.904;4.256;2023-02-28T15:21:53;103138.69;;;15.97;56.20
48517;BME280;34310;51.904;4.256;2023-02-28T15:26:51;103132.69;;;15.98;56.21
48517;BME280;34310;51.904;4.256;2023-02-28T15:29:22;103124.88;;;15.98;56.05
48517;BME280;34310;51.904;4.256;2023-02-28T15:32:04;103131.00;;;15.98;56.14
48517;BME280;34310;51.904;4.256;2023-02-28T15:34:38;103125.00;;;15.99;55.96
48517;BME280;34310;51.904;4.256;2023-02-28T15:42:32;103128.66;;;16.01;55.95
48517;BME280;34310;51.904;4.256;2023-02-28T15:45:00;103122.41;;;15.99;55.97
48517;BME280;34310;51.904;4.256;2023-02-28T15:47:29;103125.91;;;16.00;56.02
48517;BME280;34310;51.904;4.256;2023-02-28T15:50:03;103129.44;;;16.00;56.07
48517;BME280;34310;51.904;4.256;2023-02-28T15:52:37;103123.31;;;16.00;55.92